createdAt,value
2017-10-19T00:00:04.475Z,54.47
2017-10-19T00:02:31.420Z,60.93
2017-10-19T00:04:58.287Z,49.03
2017-10-19T00:07:25.066Z,54.53
2017-10-19T00:09:51.641Z,51.77
2017-10-19T00:12:18.582Z,58.90
2017-10-19T00:14:45.383Z,70.50
2017-10-19T00:17:12.167Z,59.27
2017-10-19T00:19:38.915Z,51.40
2017-10-19T00:22:05.552Z,60.40
2017-10-19T00:24:32.368Z,44.50
2017-10-19T00:26:59.313Z,55.30
2017-10-19T00:29:25.968Z,46.80
2017-10-19T00:31:52.917Z,62.83
2017-10-19T00:34:19.739Z,48.40
2017-10-19T00:36:46.511Z,56.33
2017-10-19T00:39:13.419Z,67.50
2017-10-19T00:41:40.155Z,86.47
2017-10-19T00:44:07.508Z,43.00
2017-10-19T00:46:34.281Z,46.17
2017-10-19T00:49:00.964Z,57.87
2017-10-19T00:51:27.675Z,49.87
2017-10-19T00:53:54.820Z,68.27
2017-10-19T00:56:22.384Z,47.67
2017-10-19T00:58:49.452Z,65.17
2017-10-19T01:01:16.551Z,61.17
2017-10-19T01:03:43.283Z,58.20
2017-10-19T01:06:10.031Z,42.10
2017-10-19T01:08:36.915Z,37.97
2017-10-19T01:11:03.672Z,36.57
2017-10-19T01:13:31.058Z,44.17
2017-10-19T01:15:57.908Z,47.10
2017-10-19T01:18:24.479Z,51.80
2017-10-19T01:20:51.503Z,40.47
2017-10-19T01:23:18.230Z,37.50
2017-10-19T01:25:44.991Z,33.23
2017-10-19T01:28:11.809Z,53.97
2017-10-19T01:30:38.612Z,36.27
2017-10-19T01:33:05.216Z,38.93
2017-10-19T01:35:32.043Z,47.53
2017-10-19T01:37:58.769Z,39.77
2017-10-19T01:40:25.515Z,38.37
2017-10-19T01:42:53.157Z,46.83
2017-10-19T01:45:20.112Z,43.60
2017-10-19T01:47:47.094Z,24.63
2017-10-19T01:50:13.763Z,38.67
2017-10-19T01:52:40.597Z,47.43
2017-10-19T01:55:07.213Z,41.33
2017-10-19T01:57:34.149Z,64.67
2017-10-19T02:00:00.866Z,30.43
2017-10-19T02:02:27.628Z,41.37
2017-10-19T02:04:54.200Z,40.60
2017-10-19T02:07:21.106Z,38.67
2017-10-19T02:09:47.737Z,32.70
2017-10-19T02:12:14.408Z,34.40
2017-10-19T02:14:41.963Z,34.67
2017-10-19T02:17:08.799Z,34.23
2017-10-19T02:19:35.699Z,54.20
2017-10-19T02:22:02.955Z,56.50
2017-10-19T02:24:29.801Z,33.17
2017-10-19T02:26:56.757Z,35.23
2017-10-19T02:29:24.083Z,33.50
2017-10-19T02:31:51.362Z,56.30
2017-10-19T02:34:18.094Z,43.00
2017-10-19T02:36:44.732Z,29.33
2017-10-19T02:39:11.368Z,40.60
2017-10-19T02:41:37.888Z,35.10
2017-10-19T02:44:04.526Z,32.20
2017-10-19T02:46:31.258Z,32.43
2017-10-19T02:48:58.022Z,38.83
2017-10-19T02:51:24.577Z,44.13
2017-10-19T02:53:51.305Z,37.40
2017-10-19T02:56:18.166Z,36.57
2017-10-19T02:58:44.878Z,24.37
2017-10-19T03:01:12.247Z,34.47
2017-10-19T03:03:38.952Z,29.43
2017-10-19T03:06:05.819Z,20.80
2017-10-19T03:08:32.382Z,23.10
2017-10-19T03:10:59.149Z,27.07
2017-10-19T03:13:25.812Z,22.90
2017-10-19T03:15:52.552Z,35.10
2017-10-19T03:18:19.242Z,37.73
2017-10-19T03:20:46.060Z,42.17
2017-10-19T03:23:13.906Z,31.57
2017-10-19T03:25:41.008Z,34.57
2017-10-19T03:28:07.839Z,28.10
2017-10-19T03:30:35.439Z,25.60
2017-10-19T03:33:02.139Z,36.00
2017-10-19T03:35:29.636Z,36.07
2017-10-19T03:37:56.348Z,24.10
2017-10-19T03:40:23.172Z,27.37
2017-10-19T03:42:50.751Z,24.53
2017-10-19T03:45:19.542Z,29.87
2017-10-19T03:47:46.366Z,32.13
2017-10-19T03:50:15.195Z,20.77
2017-10-19T03:52:41.856Z,35.67
2017-10-19T03:55:08.462Z,28.50
2017-10-19T03:57:35.217Z,27.57
2017-10-19T04:00:02.026Z,30.07
2017-10-19T04:02:29.570Z,30.90
2017-10-19T04:04:56.469Z,23.27
2017-10-19T04:07:23.375Z,31.13
2017-10-19T04:09:50.078Z,28.23
2017-10-19T04:12:17.081Z,29.40
2017-10-19T04:14:43.826Z,36.37
2017-10-19T04:17:10.662Z,40.40
2017-10-19T04:19:38.255Z,36.90
2017-10-19T04:22:05.068Z,25.03
2017-10-19T04:24:32.008Z,26.20
2017-10-19T04:26:58.871Z,23.87
2017-10-19T04:29:25.672Z,30.90
2017-10-19T04:31:52.407Z,30.50
2017-10-19T04:34:19.237Z,37.90
2017-10-19T04:36:46.015Z,33.03
2017-10-19T04:39:12.784Z,25.10
2017-10-19T04:41:39.542Z,29.30
2017-10-19T04:44:06.231Z,24.17
2017-10-19T04:46:32.996Z,29.63
2017-10-19T04:48:59.782Z,19.87
2017-10-19T04:51:26.526Z,33.10
2017-10-19T04:53:53.217Z,26.40
2017-10-19T04:56:19.964Z,19.90
2017-10-19T04:58:46.640Z,28.03
2017-10-19T05:01:14.100Z,34.73
2017-10-19T05:03:41.120Z,27.90
2017-10-19T05:06:07.817Z,22.57
2017-10-19T05:08:34.520Z,29.90
2017-10-19T05:11:01.503Z,28.73
2017-10-19T05:13:28.175Z,25.97
2017-10-19T05:15:54.923Z,31.97
2017-10-19T05:18:21.841Z,27.47
2017-10-19T05:20:49.677Z,31.13
2017-10-19T05:23:16.306Z,32.23
2017-10-19T05:25:43.285Z,25.37
2017-10-19T05:28:10.169Z,33.50
2017-10-19T05:30:36.858Z,38.73
2017-10-19T05:33:03.662Z,31.00
2017-10-19T05:35:30.225Z,26.43
2017-10-19T05:37:56.972Z,35.50
2017-10-19T05:40:24.541Z,29.50
2017-10-19T05:42:52.086Z,42.47
2017-10-19T05:45:18.935Z,28.57
2017-10-19T05:47:45.659Z,28.20
2017-10-19T05:50:12.397Z,26.47
2017-10-19T05:52:39.055Z,35.77
2017-10-19T05:55:05.814Z,30.23
2017-10-19T05:57:32.641Z,28.83
2017-10-19T05:59:59.347Z,33.47
2017-10-19T06:02:26.240Z,19.53
2017-10-19T06:04:53.034Z,29.87
2017-10-19T06:07:19.904Z,23.53
2017-10-19T06:09:46.736Z,34.03
2017-10-19T06:12:13.669Z,29.33
2017-10-19T06:14:40.430Z,34.50
2017-10-19T06:17:07.299Z,22.13
2017-10-19T06:19:34.175Z,43.17
2017-10-19T06:22:01.165Z,28.00
2017-10-19T06:24:28.908Z,35.53
2017-10-19T06:26:56.101Z,25.70
2017-10-19T06:29:22.961Z,34.67
2017-10-19T06:31:49.840Z,22.90
2017-10-19T06:34:16.619Z,27.87
2017-10-19T06:36:43.339Z,33.80
2017-10-19T06:39:10.035Z,36.13
2017-10-19T06:41:36.914Z,31.33
2017-10-19T06:44:03.618Z,31.03
2017-10-19T06:46:30.346Z,36.30
2017-10-19T06:48:57.107Z,31.03
2017-10-19T06:51:23.867Z,31.37
2017-10-19T06:53:50.611Z,28.47
2017-10-19T06:56:17.299Z,30.23
2017-10-19T06:58:43.902Z,33.10
2017-10-19T07:01:10.660Z,21.60
2017-10-19T07:03:37.494Z,35.97
2017-10-19T07:06:04.337Z,26.83
2017-10-19T07:08:31.788Z,33.97
2017-10-19T07:10:58.741Z,30.57
2017-10-19T07:13:25.621Z,21.73
2017-10-19T07:15:53.141Z,28.50
2017-10-19T07:18:19.985Z,23.83
2017-10-19T07:20:46.756Z,27.53
2017-10-19T07:23:13.752Z,33.63
2017-10-19T07:25:40.559Z,23.80
2017-10-19T07:28:07.435Z,26.97
2017-10-19T07:30:34.372Z,29.40
2017-10-19T07:33:01.243Z,33.73
2017-10-19T07:35:28.194Z,26.50
2017-10-19T07:37:55.279Z,29.00
2017-10-19T07:40:22.462Z,31.73
2017-10-19T07:42:49.340Z,22.93
2017-10-19T07:45:16.289Z,29.60
2017-10-19T07:47:43.879Z,32.13
2017-10-19T07:50:10.787Z,18.43
2017-10-19T07:52:38.353Z,42.07
2017-10-19T07:55:05.579Z,27.60
2017-10-19T07:57:35.092Z,36.70
2017-10-19T08:00:02.799Z,22.53
2017-10-19T08:02:29.436Z,20.90
2017-10-19T08:04:56.128Z,25.33
2017-10-19T08:07:23.368Z,17.93
2017-10-19T08:09:50.731Z,37.57
2017-10-19T08:12:17.315Z,25.03
2017-10-19T08:14:44.028Z,30.70
2017-10-19T08:17:11.211Z,24.10
2017-10-19T08:19:37.903Z,21.63
2017-10-19T08:22:04.866Z,28.87
2017-10-19T08:24:31.516Z,26.70
2017-10-19T08:26:58.324Z,30.90
2017-10-19T08:29:27.015Z,28.87
2017-10-19T08:31:53.795Z,18.30
2017-10-19T08:34:21.101Z,17.83
2017-10-19T08:36:48.448Z,31.00
2017-10-19T08:39:16.074Z,22.07
2017-10-19T08:41:46.124Z,35.87
2017-10-19T08:44:18.304Z,25.70
2017-10-19T08:46:46.183Z,21.30
2017-10-19T08:49:13.019Z,25.53
2017-10-19T08:51:40.402Z,21.70
2017-10-19T08:54:07.380Z,23.73
2017-10-19T08:56:35.690Z,26.13
2017-10-19T08:59:03.849Z,23.80
2017-10-19T09:01:30.424Z,20.80
2017-10-19T09:03:58.129Z,21.03
2017-10-19T09:06:26.225Z,36.30
2017-10-19T09:08:53.932Z,36.50
2017-10-19T09:11:21.460Z,25.33
2017-10-19T09:13:48.255Z,26.77
2017-10-19T09:16:15.028Z,27.43
2017-10-19T09:18:41.792Z,28.10
2017-10-19T09:21:08.652Z,25.20
2017-10-19T09:23:36.035Z,21.97
2017-10-19T09:26:03.533Z,33.40
2017-10-19T09:28:30.343Z,35.90
2017-10-19T09:30:58.032Z,31.67
2017-10-19T09:33:25.420Z,26.70
2017-10-19T09:35:52.836Z,21.80
2017-10-19T09:38:21.717Z,17.87
2017-10-19T09:40:49.124Z,25.40
2017-10-19T09:43:16.070Z,31.43
2017-10-19T09:45:43.096Z,35.13
2017-10-19T09:48:12.039Z,24.67
2017-10-19T09:50:38.700Z,32.23
2017-10-19T09:53:05.789Z,27.23
2017-10-19T09:55:32.941Z,27.90
2017-10-19T09:57:59.803Z,27.23
2017-10-19T10:00:31.040Z,27.13
2017-10-19T10:02:59.154Z,22.67
2017-10-19T10:05:25.979Z,24.23
2017-10-19T10:07:52.758Z,27.37
2017-10-19T10:10:19.315Z,28.43
2017-10-19T10:12:46.329Z,25.67
2017-10-19T10:15:13.268Z,24.60
2017-10-19T10:17:39.915Z,25.57
2017-10-19T10:20:06.809Z,28.20
2017-10-19T10:22:35.720Z,31.33
2017-10-19T10:25:02.677Z,20.07
2017-10-19T10:27:31.787Z,28.83
2017-10-19T10:29:58.350Z,23.60
2017-10-19T10:32:25.479Z,23.83
2017-10-19T10:34:52.543Z,26.83
2017-10-19T10:37:19.936Z,23.40
2017-10-19T10:39:47.485Z,24.43
2017-10-19T10:42:15.705Z,22.57
2017-10-19T10:44:43.411Z,29.57
2017-10-19T10:47:10.249Z,24.00
2017-10-19T10:49:37.681Z,27.30
2017-10-19T10:52:06.146Z,31.83
2017-10-19T10:54:33.788Z,26.20
2017-10-19T10:57:00.635Z,36.00
2017-10-19T10:59:28.355Z,33.67
2017-10-19T11:01:55.172Z,21.53
2017-10-19T11:04:21.955Z,22.80
2017-10-19T11:06:48.796Z,22.93
2017-10-19T11:09:15.409Z,31.43
2017-10-19T11:11:42.345Z,26.63
2017-10-19T11:14:09.835Z,25.73
2017-10-19T11:16:37.288Z,26.20
2017-10-19T11:19:04.145Z,25.93
2017-10-19T11:21:30.978Z,22.80
2017-10-19T11:23:57.511Z,24.87
2017-10-19T11:26:24.508Z,26.90
2017-10-19T11:28:51.198Z,24.30
2017-10-19T11:31:18.451Z,21.50
2017-10-19T11:33:45.564Z,25.70
2017-10-19T11:36:12.398Z,30.90
2017-10-19T11:38:39.285Z,25.37
2017-10-19T11:41:06.124Z,29.20
2017-10-19T11:43:32.764Z,30.43
2017-10-19T11:45:59.683Z,28.77
2017-10-19T11:48:27.083Z,25.43
2017-10-19T11:50:53.838Z,26.83
2017-10-19T11:53:20.648Z,30.40
2017-10-19T11:55:47.453Z,35.47
2017-10-19T11:58:14.909Z,30.80
2017-10-19T12:00:41.652Z,34.13
2017-10-19T12:03:08.459Z,28.83
2017-10-19T12:05:35.465Z,31.23
2017-10-19T12:08:02.224Z,32.27
2017-10-19T12:10:29.265Z,31.77
2017-10-19T12:12:55.963Z,34.73
2017-10-19T12:15:22.919Z,36.77
2017-10-19T12:17:50.392Z,30.13
2017-10-19T12:20:17.456Z,29.23
2017-10-19T12:22:44.123Z,32.30
2017-10-19T12:25:10.902Z,25.47
2017-10-19T12:27:37.774Z,27.70
2017-10-19T12:30:04.541Z,26.57
2017-10-19T12:32:31.353Z,30.80
2017-10-19T12:34:58.187Z,26.47
2017-10-19T12:37:25.007Z,21.03
2017-10-19T12:39:51.940Z,31.57
2017-10-19T12:42:18.729Z,30.07
2017-10-19T12:44:45.465Z,35.37
2017-10-19T12:47:12.517Z,23.23
2017-10-19T12:49:39.226Z,30.67
2017-10-19T12:52:06.611Z,28.57
2017-10-19T12:54:34.275Z,33.23
2017-10-19T12:57:01.084Z,32.23
2017-10-19T12:59:27.860Z,33.53
2017-10-19T13:01:54.689Z,33.03
2017-10-19T13:04:21.584Z,27.77
2017-10-19T13:06:48.286Z,24.63
2017-10-19T13:09:15.041Z,29.13
2017-10-19T13:11:41.767Z,37.80
2017-10-19T13:14:08.480Z,21.07
2017-10-19T13:16:35.248Z,25.77
2017-10-19T13:19:02.203Z,28.10
2017-10-19T13:21:28.916Z,30.03
2017-10-19T13:23:55.672Z,24.27
2017-10-19T13:26:22.329Z,34.57
2017-10-19T13:28:49.065Z,29.07
2017-10-19T13:31:15.895Z,25.93
2017-10-19T13:33:42.689Z,28.97
2017-10-19T13:36:09.461Z,29.90
2017-10-19T13:38:36.127Z,31.10
2017-10-19T13:41:02.893Z,34.40
2017-10-19T13:43:29.662Z,24.53
2017-10-19T13:45:56.376Z,28.97
2017-10-19T13:48:23.014Z,27.77
2017-10-19T13:50:49.727Z,27.27
2017-10-19T13:53:16.671Z,25.77
2017-10-19T13:55:43.447Z,26.80
2017-10-19T13:58:10.314Z,28.27
2017-10-19T14:00:36.956Z,21.80
2017-10-19T14:03:04.583Z,29.70
2017-10-19T14:05:32.198Z,31.07
2017-10-19T14:07:59.361Z,34.03
2017-10-19T14:10:26.081Z,31.57
2017-10-19T14:12:52.903Z,19.60
2017-10-19T14:15:20.672Z,27.97
2017-10-19T14:17:47.531Z,32.20
2017-10-19T14:20:14.653Z,22.93
2017-10-19T14:22:41.667Z,30.47
2017-10-19T14:25:10.220Z,20.13
2017-10-19T14:27:37.146Z,22.70
2017-10-19T14:30:07.462Z,22.83
2017-10-19T14:32:34.218Z,33.73
2017-10-19T14:35:01.082Z,24.73
2017-10-19T14:37:28.482Z,41.23
2017-10-19T14:39:55.160Z,26.63
2017-10-19T14:42:21.874Z,19.87
2017-10-19T14:44:48.657Z,22.13
2017-10-19T14:47:15.581Z,21.93
2017-10-19T14:49:42.487Z,20.57
2017-10-19T14:52:10.583Z,26.57
2017-10-19T14:54:37.535Z,35.90
2017-10-19T14:57:04.274Z,26.27
2017-10-19T14:59:31.861Z,28.40
2017-10-19T15:01:59.298Z,30.07
2017-10-19T15:04:26.038Z,27.70
2017-10-19T15:06:53.253Z,27.70
2017-10-19T15:09:20.053Z,28.27
2017-10-19T15:11:46.872Z,29.73
2017-10-19T15:14:13.540Z,27.70
2017-10-19T15:16:40.330Z,24.67
2017-10-19T15:19:08.181Z,28.33
2017-10-19T15:21:35.332Z,26.70
2017-10-19T15:24:04.715Z,27.23
2017-10-19T15:26:31.936Z,19.07
2017-10-19T15:28:59.100Z,28.03
2017-10-19T15:31:25.812Z,30.17
2017-10-19T15:33:52.676Z,28.90
2017-10-19T15:36:20.349Z,30.57
2017-10-19T15:38:47.117Z,34.80
2017-10-19T15:41:14.744Z,30.77
2017-10-19T15:43:41.435Z,38.87
2017-10-19T15:46:08.489Z,32.27
2017-10-19T15:48:35.387Z,34.83
2017-10-19T15:51:12.404Z,36.63
2017-10-19T15:53:39.244Z,34.37
2017-10-19T15:56:06.052Z,39.70
2017-10-19T15:58:32.708Z,39.60
2017-10-19T16:01:00.042Z,32.80
2017-10-19T16:03:26.653Z,36.37
2017-10-19T16:05:53.349Z,43.30
2017-10-19T16:08:20.285Z,36.77
2017-10-19T16:10:47.844Z,41.03
2017-10-19T16:13:14.487Z,43.47
2017-10-19T16:15:41.972Z,38.93
2017-10-19T16:18:09.040Z,37.93
2017-10-19T16:20:35.820Z,34.87
2017-10-19T16:23:02.710Z,42.50
2017-10-19T16:25:29.535Z,48.60
2017-10-19T16:27:57.755Z,54.37
2017-10-19T16:30:26.926Z,44.53
2017-10-19T16:41:24.682Z,42.80
2017-10-19T16:43:52.196Z,40.83
2017-10-19T16:46:19.658Z,43.20
2017-10-19T16:48:49.520Z,43.20
2017-10-19T16:51:19.799Z,47.07
2017-10-19T16:53:53.475Z,41.57
2017-10-19T16:56:26.771Z,37.73
2017-10-19T16:59:03.786Z,74.07
2017-10-19T17:01:33.887Z,47.77
2017-10-19T17:12:21.451Z,63.67
2017-10-19T17:14:53.296Z,50.60
2017-10-19T17:17:23.060Z,51.63
2017-10-19T17:19:51.345Z,40.37
2017-10-19T17:22:18.030Z,48.03
2017-10-19T17:24:45.877Z,53.83
2017-10-19T17:27:13.720Z,51.90
2017-10-19T17:29:42.138Z,51.93
2017-10-19T17:32:10.895Z,50.07
2017-10-19T17:34:40.140Z,42.30
2017-10-19T17:37:07.864Z,60.53
2017-10-19T17:39:34.729Z,56.53
2017-10-19T17:42:01.866Z,67.07
2017-10-19T17:44:28.642Z,46.37
2017-10-19T17:46:55.582Z,50.17
2017-10-19T17:49:22.319Z,56.07
2017-10-19T17:51:49.373Z,61.00
2017-10-19T17:54:16.002Z,59.93
2017-10-19T17:56:42.960Z,54.23
2017-10-19T17:59:09.991Z,60.77
2017-10-19T18:01:36.839Z,52.43
2017-10-19T18:04:04.764Z,45.33
2017-10-19T18:06:32.164Z,60.87
2017-10-19T18:08:59.085Z,58.83
2017-10-19T18:11:28.827Z,55.20
2017-10-19T18:13:57.503Z,54.13
2017-10-19T18:16:26.301Z,60.13
2017-10-19T18:18:53.753Z,55.70
2017-10-19T18:21:20.555Z,59.60
2017-10-19T18:23:47.969Z,58.83
2017-10-19T18:26:16.797Z,56.70
2017-10-19T18:28:44.282Z,56.60
2017-10-19T18:31:11.182Z,58.70
2017-10-19T18:33:38.182Z,63.23
2017-10-19T18:36:05.034Z,63.70
2017-10-19T18:38:31.863Z,58.10
2017-10-19T18:40:59.505Z,54.80
2017-10-19T18:43:27.572Z,63.70
2017-10-19T18:45:54.615Z,68.33
2017-10-19T18:48:21.405Z,51.97
2017-10-19T18:50:48.184Z,56.67
2017-10-19T18:53:16.639Z,57.10
2017-10-19T18:55:43.532Z,56.87
2017-10-19T18:58:11.327Z,61.10
2017-10-19T19:00:38.601Z,64.10
2017-10-19T19:03:06.073Z,61.50
2017-10-19T19:05:32.870Z,60.13
2017-10-19T19:07:59.587Z,67.53
2017-10-19T19:10:27.057Z,55.70
2017-10-19T19:12:54.055Z,59.73
2017-10-19T19:15:21.242Z,57.43
2017-10-19T19:17:48.095Z,56.27
2017-10-19T19:20:14.929Z,50.83
2017-10-19T19:22:43.185Z,64.53
2017-10-19T19:25:10.904Z,48.83
2017-10-19T19:27:38.668Z,52.43
2017-10-19T19:30:05.582Z,59.67
2017-10-19T19:32:34.835Z,60.17
2017-10-19T19:35:02.212Z,60.97
2017-10-19T19:37:29.313Z,60.77
2017-10-19T19:39:56.524Z,62.53
2017-10-19T19:42:23.577Z,59.50
2017-10-19T19:44:51.431Z,57.43
2017-10-19T19:47:18.865Z,52.23
2017-10-19T19:49:50.298Z,65.13
2017-10-19T19:52:23.515Z,55.97
2017-10-19T19:54:54.135Z,62.10
2017-10-19T19:57:21.526Z,54.77
2017-10-19T19:59:49.176Z,66.00
2017-10-19T20:02:16.800Z,50.93
2017-10-19T20:04:44.692Z,59.97
2017-10-19T20:07:11.841Z,54.23
2017-10-19T20:09:39.811Z,58.00
2017-10-19T20:12:06.700Z,65.03
2017-10-19T20:14:35.303Z,68.97
2017-10-19T20:17:02.521Z,71.97
2017-10-19T20:19:29.487Z,51.53
2017-10-19T20:21:56.468Z,64.43
2017-10-19T20:24:23.578Z,62.07
2017-10-19T20:26:50.280Z,69.87
2017-10-19T20:29:17.224Z,64.13
2017-10-19T20:31:44.874Z,67.90
2017-10-19T20:34:11.861Z,65.20
2017-10-19T20:36:39.098Z,59.70
2017-10-19T20:39:06.015Z,70.67
2017-10-19T20:41:32.825Z,61.90
2017-10-19T20:43:59.684Z,70.20
2017-10-19T20:46:26.905Z,58.33
2017-10-19T20:48:54.139Z,62.83
2017-10-19T20:51:22.134Z,67.60
2017-10-19T20:53:50.562Z,70.03
2017-10-19T20:56:17.712Z,64.73
2017-10-19T20:58:44.651Z,71.00
2017-10-19T21:01:11.932Z,75.97
2017-10-19T21:03:38.784Z,66.77
2017-10-19T21:06:05.806Z,66.27
2017-10-19T21:08:32.476Z,67.57
2017-10-19T21:11:00.561Z,70.90
2017-10-19T21:13:29.328Z,75.70
2017-10-19T21:15:57.410Z,75.90
2017-10-19T21:18:26.872Z,84.77
2017-10-19T21:20:53.866Z,72.07
2017-10-19T21:23:21.732Z,79.10
2017-10-19T21:25:48.653Z,71.53
2017-10-19T21:28:15.877Z,83.03
2017-10-19T21:30:42.781Z,73.90
2017-10-19T21:33:10.750Z,78.33
2017-10-19T21:35:38.195Z,75.10
2017-10-19T21:38:04.992Z,75.50
2017-10-19T21:40:32.551Z,92.83
2017-10-19T21:42:59.389Z,79.30
2017-10-19T21:45:25.982Z,70.73
2017-10-19T21:47:53.631Z,83.43
2017-10-19T21:50:20.407Z,82.10
2017-10-19T21:52:47.738Z,74.70
2017-10-19T21:55:14.574Z,95.90
2017-10-19T21:57:41.137Z,86.37
2017-10-19T22:00:08.162Z,90.27
2017-10-19T22:02:35.736Z,85.73
2017-10-19T22:05:03.466Z,86.57
2017-10-19T22:07:30.600Z,82.93
2017-10-19T22:09:58.149Z,96.80
2017-10-19T22:12:24.859Z,77.27
2017-10-19T22:14:51.582Z,75.87
2017-10-19T22:17:18.325Z,87.87
2017-10-19T22:19:45.040Z,83.43
2017-10-19T22:22:12.022Z,89.63
2017-10-19T22:24:39.563Z,88.27
2017-10-19T22:27:06.206Z,102.07
2017-10-19T22:29:32.991Z,94.70
2017-10-19T22:31:59.624Z,99.80
2017-10-19T22:34:26.296Z,84.40
2017-10-19T22:36:53.211Z,92.80
2017-10-19T22:39:20.843Z,102.03
2017-10-19T22:41:47.727Z,104.40
2017-10-19T22:44:15.281Z,100.47
2017-10-19T22:46:41.841Z,103.73
2017-10-19T22:49:08.612Z,113.53
2017-10-19T22:51:35.332Z,115.50
2017-10-19T22:54:02.897Z,106.93
2017-10-19T22:56:29.627Z,112.77
2017-10-19T22:58:57.254Z,129.67
2017-10-19T23:01:23.763Z,141.20
2017-10-19T23:03:50.458Z,126.57
2017-10-19T23:06:17.109Z,120.53
2017-10-19T23:08:43.735Z,113.83
2017-10-19T23:11:10.492Z,110.27
2017-10-19T23:13:38.089Z,121.10
2017-10-19T23:16:05.595Z,117.73
2017-10-19T23:18:32.258Z,115.57
2017-10-19T23:20:58.907Z,120.20
2017-10-19T23:23:25.679Z,118.00
2017-10-19T23:25:52.492Z,139.27
2017-10-19T23:28:19.302Z,127.67
2017-10-19T23:30:45.968Z,131.93
2017-10-19T23:33:13.434Z,131.57
2017-10-19T23:35:40.420Z,139.33
2017-10-19T23:38:07.186Z,141.20
2017-10-19T23:40:33.931Z,121.53
2017-10-19T23:43:00.724Z,144.13
2017-10-19T23:45:27.358Z,139.27
2017-10-19T23:47:54.012Z,152.27
2017-10-19T23:50:20.661Z,156.27
2017-10-19T23:52:47.472Z,173.50
2017-10-19T23:55:14.071Z,147.30
2017-10-19T23:57:40.704Z,139.03
